Time;durP1;ratioP1;P1;durP2;ratioP2;P2;SDS_P1;SDS_P2;PMS_P1;PMS_P2;Temp;Humidity;BMP_temperature;BMP_pressure;BME280_temperature;BME280_humidity;BME280_pressure;Samples;Min_cycle;Max_cycle;Signal;HPM_P1;HPM_P2
2022/09/19 00:00:31;;;;;;;3.47;1.50;;;7.90;99.90;;;;;;5066251;23;20494;-69
2022/09/19 00:02:32;;;;;;;3.40;1.60;;;7.90;99.90;;;;;;5066726;23;20174;-67
2022/09/19 00:04:32;;;;;;;2.40;1.10;;;7.90;99.90;;;;;;5066658;23;20520;-70
2022/09/19 00:06:36;;;;;;;3.10;1.20;;;7.80;99.90;;;;;;5066671;23;20185;-68
2022/09/19 00:08:38;;;;;;;4.60;1.30;;;7.80;99.90;;;;;;5066537;23;20163;-69
2022/09/19 00:10:41;;;;;;;1.40;1.30;;;7.80;99.90;;;;;;5066080;23;20418;-70
2022/09/19 00:12:41;;;;;;;2.27;1.50;;;7.70;99.90;;;;;;5066595;23;20477;-69
2022/09/19 00:14:42;;;;;;;1.80;1.43;;;7.70;99.90;;;;;;5066739;23;20387;-69
2022/09/19 00:16:45;;;;;;;2.43;2.23;;;7.60;99.90;;;;;;5040849;23;20227;-69
2022/09/19 00:18:50;;;;;;;1.23;1.00;;;7.60;99.90;;;;;;5066629;23;20166;-69
2022/09/19 00:20:51;;;;;;;1.00;0.93;;;7.50;99.90;;;;;;5065782;23;20442;-69
2022/09/19 00:25:10;;;;;;;2.73;1.20;;;7.40;99.90;;;;;;5064524;23;20210;-70
2022/09/19 00:27:13;;;;;;;2.73;1.13;;;7.40;99.90;;;;;;5066255;23;20727;-70
2022/09/19 00:29:16;;;;;;;1.57;1.10;;;7.40;99.90;;;;;;5040513;23;20163;-70
2022/09/19 00:31:19;;;;;;;1.30;1.17;;;7.40;99.90;;;;;;5065311;23;20494;-69
2022/09/19 00:33:21;;;;;;;1.67;1.20;;;7.40;99.90;;;;;;5065571;23;20529;-68
2022/09/19 00:35:21;;;;;;;2.20;1.20;;;7.30;99.90;;;;;;5040502;23;20493;-69
2022/09/19 00:37:22;;;;;;;1.47;1.00;;;7.30;99.90;;;;;;5066147;23;20781;-70
2022/09/19 00:39:23;;;;;;;2.43;1.33;;;7.40;99.90;;;;;;5067811;23;20256;-69
2022/09/19 00:41:26;;;;;;;1.87;1.10;;;7.40;99.90;;;;;;5066146;23;20179;-70
2022/09/19 00:43:48;;;;;;;1.43;1.30;;;7.40;99.90;;;;;;5066550;23;20644;-70
2022/09/19 00:45:49;;;;;;;2.03;1.20;;;7.30;99.90;;;;;;5066562;23;20424;-70
2022/09/19 00:47:53;;;;;;;1.97;1.10;;;7.30;99.90;;;;;;5066378;23;20878;-70
2022/09/19 00:49:57;;;;;;;1.63;1.40;;;7.20;99.90;;;;;;5066355;23;20194;-70
2022/09/19 00:52:02;;;;;;;3.03;1.20;;;7.20;99.90;;;;;;5065676;23;21025;-70
2022/09/19 00:54:12;;;;;;;1.50;1.40;;;7.20;99.90;;;;;;5066979;23;20390;-69
2022/09/19 00:56:15;;;;;;;3.83;1.30;;;7.30;99.90;;;;;;5040332;23;20391;-69
2022/09/19 00:58:22;;;;;;;1.90;1.57;;;7.30;99.90;;;;;;5066172;23;20808;-69
2022/09/19 01:00:23;;;;;;;1.27;1.17;;;7.40;99.90;;;;;;5065412;23;20388;-69
2022/09/19 01:02:28;;;;;;;1.50;1.40;;;7.40;99.90;;;;;;5066090;23;20797;-69
2022/09/19 01:04:30;;;;;;;3.37;1.33;;;7.40;99.90;;;;;;5066197;23;20495;-70
2022/09/19 01:07:08;;;;;;;2.73;1.90;;;7.40;99.90;;;;;;5066106;23;20425;-69
2022/09/19 01:09:30;;;;;;;2.40;1.50;;;7.40;99.90;;;;;;5066143;23;20378;-69
2022/09/19 01:11:42;;;;;;;2.10;1.87;;;7.40;99.90;;;;;;5065288;23;20398;-68
2022/09/19 01:13:59;;;;;;;2.60;1.80;;;7.50;99.90;;;;;;5066015;23;20436;-70
2022/09/19 01:16:20;;;;;;;2.93;1.97;;;7.60;99.90;;;;;;5065992;23;20437;-69
2022/09/19 01:18:26;;;;;;;2.03;1.67;;;7.50;99.90;;;;;;5065881;23;20366;-69
2022/09/19 01:20:38;;;;;;;2.43;1.60;;;7.40;99.90;;;;;;5065051;23;20384;-70
2022/09/19 01:23:25;;;;;;;3.27;1.90;;;7.30;99.90;;;;;;5066740;23;20374;-70
2022/09/19 01:26:03;;;;;;;4.97;1.87;;;7.40;99.90;;;;;;5066144;23;20374;-69
2022/09/19 01:28:13;;;;;;;1.97;1.83;;;7.40;99.90;;;;;;5066049;23;20469;-70
2022/09/19 01:30:15;;;;;;;3.20;1.80;;;7.40;99.90;;;;;;5065208;23;20452;-70
2022/09/19 01:32:21;;;;;;;2.97;2.23;;;7.40;99.90;;;;;;5065686;23;20433;-70
2022/09/19 01:34:31;;;;;;;2.37;2.00;;;7.40;99.90;;;;;;5065838;23;20414;-70
2022/09/19 01:36:46;;;;;;;2.83;2.10;;;7.40;99.90;;;;;;5065840;23;20727;-69
2022/09/19 01:38:49;;;;;;;2.60;2.40;;;7.50;99.90;;;;;;5066096;23;20767;-70
2022/09/19 01:40:51;;;;;;;2.70;1.73;;;7.50;99.90;;;;;;5063355;23;21084;-70
2022/09/19 01:42:57;;;;;;;1.80;1.70;;;7.50;99.90;;;;;;5065860;23;20507;-70
2022/09/19 01:44:58;;;;;;;2.33;1.80;;;7.50;99.90;;;;;;5065830;23;20370;-70
2022/09/19 01:47:21;;;;;;;2.70;2.00;;;7.50;99.90;;;;;;5065919;23;20405;-70
2022/09/19 01:49:50;;;;;;;1.73;1.40;;;7.50;99.90;;;;;;5065951;23;20245;-70
2022/09/19 01:52:02;;;;;;;1.83;1.73;;;7.30;99.90;;;;;;5022383;23;20423;-69
2022/09/19 01:54:11;;;;;;;1.60;1.50;;;7.40;99.90;;;;;;5065871;23;20449;-69
2022/09/19 01:56:45;;;;;;;2.43;1.97;;;7.40;99.90;;;;;;5065856;23;20694;-70
2022/09/19 01:59:05;;;;;;;1.77;1.47;;;7.40;99.90;;;;;;5065713;23;20382;-69
2022/09/19 02:01:26;;;;;;;1.80;1.70;;;7.40;99.90;;;;;;5064896;23;20406;-70
2022/09/19 02:03:46;;;;;;;2.00;1.80;;;7.50;99.90;;;;;;5039803;23;20484;-69
2022/09/19 02:06:14;;;;;;;1.87;1.47;;;7.60;99.90;;;;;;5065637;23;20401;-69
2022/09/19 02:08:28;;;;;;;1.80;1.70;;;7.50;99.90;;;;;;5053749;23;20406;-69
2022/09/19 02:10:49;;;;;;;3.70;1.77;;;7.40;99.90;;;;;;5064759;23;20394;-69
2022/09/19 02:12:54;;;;;;;1.57;1.47;;;7.50;99.90;;;;;;5065618;23;21028;-70
2022/09/19 02:15:00;;;;;;;2.10;1.90;;;7.50;99.90;;;;;;5065571;23;20799;-69
2022/09/19 02:17:13;;;;;;;4.37;1.90;;;7.60;99.90;;;;;;5065641;23;20370;-70
2022/09/19 02:19:22;;;;;;;3.20;1.50;;;7.50;99.90;;;;;;5065780;23;20826;-69
2022/09/19 02:21:41;;;;;;;2.47;1.90;;;7.60;99.90;;;;;;5064981;23;20895;-69
2022/09/19 02:23:47;;;;;;;3.13;1.73;;;7.60;99.90;;;;;;5065761;23;20370;-70
2022/09/19 02:25:51;;;;;;;3.13;1.70;;;7.60;99.90;;;;;;5065781;23;20375;-69
2022/09/19 02:27:59;;;;;;;2.67;1.40;;;7.70;99.90;;;;;;5065583;23;20386;-70
2022/09/19 02:30:06;;;;;;;4.83;2.60;;;7.60;99.90;;;;;;5065808;23;20469;-69
2022/09/19 02:32:10;;;;;;;1.57;1.47;;;7.50;99.90;;;;;;5061603;23;20937;-70
2022/09/19 02:34:11;;;;;;;1.40;1.30;;;7.50;99.90;;;;;;5066985;23;20399;-70
2022/09/19 02:36:30;;;;;;;1.93;1.63;;;7.50;99.90;;;;;;5067293;23;20416;-69
2022/09/19 02:38:44;;;;;;;1.40;1.30;;;7.50;99.90;;;;;;5041659;23;20157;-69
2022/09/19 02:40:54;;;;;;;2.00;1.20;;;7.70;99.90;;;;;;5066632;23;20408;-70
2022/09/19 02:43:04;;;;;;;2.07;1.50;;;7.70;99.90;;;;;;5067588;23;20429;-69
2022/09/19 02:45:28;;;;;;;1.40;1.30;;;7.60;99.90;;;;;;5067496;23;20505;-68
2022/09/19 02:47:50;;;;;;;1.37;1.20;;;7.50;99.90;;;;;;5040716;23;21079;-69
2022/09/19 02:49:58;;;;;;;0.90;0.90;;;7.50;99.90;;;;;;5067094;23;20371;-68
2022/09/19 02:52:04;;;;;;;1.30;1.20;;;7.30;99.90;;;;;;5066809;23;20409;-70
2022/09/19 02:54:13;;;;;;;1.23;1.10;;;7.30;99.90;;;;;;5067048;23;20378;-69
2022/09/19 02:56:16;;;;;;;1.43;1.17;;;7.40;99.90;;;;;;5066996;23;20370;-69
2022/09/19 02:58:18;;;;;;;2.40;1.20;;;7.50;99.90;;;;;;5067013;23;21135;-69
2022/09/19 03:00:21;;;;;;;1.10;1.00;;;7.40;99.90;;;;;;5066406;23;20752;-70
2022/09/19 03:02:47;;;;;;;3.47;1.30;;;7.60;99.90;;;;;;5066954;23;20854;-69
2022/09/19 03:04:53;;;;;;;1.37;1.00;;;7.60;99.90;;;;;;5067126;23;20425;-68
2022/09/19 03:07:14;;;;;;;1.13;1.03;;;7.50;99.90;;;;;;5066889;23;20379;-69
2022/09/19 03:09:19;;;;;;;1.57;1.20;;;7.50;99.90;;;;;;5041038;23;20431;-69
2022/09/19 03:11:23;;;;;;;3.00;1.70;;;7.50;99.90;;;;;;5066251;23;20529;-69
2022/09/19 03:13:24;;;;;;;3.10;2.60;;;7.50;99.90;;;;;;5066689;23;20440;-69
2022/09/19 03:15:51;;;;;;;1.57;1.13;;;7.50;99.90;;;;;;5066930;23;20421;-69
2022/09/19 03:17:53;;;;;;;2.37;1.23;;;7.40;99.90;;;;;;5067040;23;20907;-70
2022/09/19 03:19:56;;;;;;;1.23;1.13;;;7.50;99.90;;;;;;5040728;23;20399;-69
2022/09/19 03:21:57;;;;;;;1.23;1.17;;;7.50;99.90;;;;;;5066153;23;20402;-70
2022/09/19 03:23:58;;;;;;;1.50;1.40;;;7.40;99.90;;;;;;5040981;23;20434;-69
2022/09/19 03:26:01;;;;;;;1.80;1.63;;;7.30;99.90;;;;;;5066611;23;20398;-69
2022/09/19 03:28:02;;;;;;;4.03;1.70;;;7.30;99.90;;;;;;5067185;23;20408;-69
2022/09/19 03:30:13;;;;;;;3.30;1.50;;;7.20;99.90;;;;;;5067229;23;20391;-70
2022/09/19 03:32:14;;;;;;;2.17;1.37;;;7.00;99.90;;;;;;5066890;23;20198;-69
2022/09/19 03:34:15;;;;;;;1.90;1.20;;;7.00;99.90;;;;;;5066864;23;20401;-69
2022/09/19 03:36:15;;;;;;;3.47;1.20;;;6.80;99.90;;;;;;5041063;23;20540;-69
2022/09/19 03:38:16;;;;;;;3.50;1.43;;;6.80;99.90;;;;;;5066864;23;20433;-69
2022/09/19 03:40:17;;;;;;;1.40;1.30;;;6.80;99.90;;;;;;5065957;23;20205;-70
2022/09/19 03:42:19;;;;;;;1.53;1.33;;;6.70;99.90;;;;;;5066444;23;20565;-69
2022/09/19 03:44:20;;;;;;;3.97;1.67;;;6.70;99.90;;;;;;5067750;23;20186;-69
2022/09/19 03:46:21;;;;;;;3.07;1.50;;;6.60;99.90;;;;;;5066779;23;20402;-69
2022/09/19 03:48:21;;;;;;;4.30;1.80;;;6.60;99.90;;;;;;5066846;23;20580;-69
2022/09/19 03:50:23;;;;;;;1.70;1.40;;;6.60;99.90;;;;;;5040192;23;20171;-69
2022/09/19 03:52:27;;;;;;;1.87;1.60;;;6.50;99.90;;;;;;5064993;23;20198;-68
2022/09/19 03:54:27;;;;;;;3.40;1.80;;;6.50;99.90;;;;;;5066588;23;20387;-69
2022/09/19 03:56:28;;;;;;;2.63;1.73;;;6.50;99.90;;;;;;5066747;23;20394;-69
2022/09/19 03:58:30;;;;;;;1.90;1.70;;;6.50;99.90;;;;;;5066839;23;20185;-69
2022/09/19 04:00:31;;;;;;;6.17;1.80;;;6.60;99.90;;;;;;5066081;23;20162;-68
2022/09/19 04:02:32;;;;;;;3.93;1.63;;;6.60;99.90;;;;;;5066809;23;20449;-69
2022/09/19 04:04:33;;;;;;;5.67;1.70;;;6.60;99.90;;;;;;5066784;23;20183;-69
2022/09/19 04:06:33;;;;;;;4.87;2.13;;;6.70;99.90;;;;;;5066869;23;20225;-69
2022/09/19 04:08:34;;;;;;;3.13;1.67;;;6.80;99.90;;;;;;5067018;23;20241;-69
2022/09/19 04:10:34;;;;;;;2.00;1.57;;;6.70;99.90;;;;;;5065937;23;20162;-69
2022/09/19 04:12:35;;;;;;;2.57;1.80;;;6.70;99.90;;;;;;5066861;23;20178;-69
2022/09/19 04:14:36;;;;;;;3.60;1.67;;;6.60;99.90;;;;;;5066747;23;20159;-70
2022/09/19 04:16:36;;;;;;;3.20;1.70;;;6.60;99.90;;;;;;5066911;23;20170;-69
2022/09/19 04:18:41;;;;;;;2.47;1.70;;;6.50;99.90;;;;;;5066748;23;20158;-69
2022/09/19 04:20:41;;;;;;;4.07;2.07;;;6.40;99.90;;;;;;5065983;23;20732;-69
2022/09/19 04:22:42;;;;;;;3.00;1.60;;;6.40;99.90;;;;;;5066693;23;20394;-69
2022/09/19 04:24:43;;;;;;;4.33;2.10;;;6.20;99.90;;;;;;5066555;23;20166;-69
2022/09/19 04:26:43;;;;;;;2.53;1.53;;;6.00;99.90;;;;;;5066382;23;20237;-69
2022/09/19 04:28:44;;;;;;;5.30;1.60;;;6.00;99.90;;;;;;5066553;23;20169;-69
2022/09/19 04:30:45;;;;;;;1.73;1.43;;;6.00;99.90;;;;;;5066081;23;20185;-69
2022/09/19 04:32:46;;;;;;;6.97;1.57;;;6.00;99.90;;;;;;5066529;23;20422;-68
2022/09/19 04:34:47;;;;;;;3.00;1.50;;;6.00;99.90;;;;;;5066622;23;20181;-69
2022/09/19 04:36:49;;;;;;;2.40;1.70;;;5.90;99.90;;;;;;5066782;23;20162;-69
2022/09/19 04:38:52;;;;;;;2.20;1.60;;;5.70;99.90;;;;;;5067022;23;20478;-69
2022/09/19 04:40:56;;;;;;;5.07;2.20;;;5.70;99.90;;;;;;5065949;23;21021;-68
2022/09/19 04:42:57;;;;;;;7.33;2.40;;;5.60;99.90;;;;;;5066058;23;20392;-69
2022/09/19 04:44:58;;;;;;;3.17;1.97;;;5.60;99.90;;;;;;5040608;23;21155;-69
2022/09/19 04:46:59;;;;;;;8.80;2.60;;;5.70;99.90;;;;;;5066255;23;20401;-68
2022/09/19 04:49:00;;;;;;;5.83;2.30;;;5.80;99.90;;;;;;5066521;23;20166;-69
2022/09/19 04:51:01;;;;;;;2.90;1.83;;;5.90;99.90;;;;;;5039660;23;20198;-68
2022/09/19 04:53:03;;;;;;;2.67;2.07;;;5.90;99.90;;;;;;5067098;23;20195;-69
2022/09/19 04:55:04;;;;;;;3.17;2.17;;;5.90;99.90;;;;;;5067045;23;20400;-69
2022/09/19 04:57:05;;;;;;;4.80;2.00;;;5.90;99.90;;;;;;5067150;23;20434;-69
2022/09/19 04:59:06;;;;;;;3.80;2.13;;;5.80;99.90;;;;;;5067352;23;20169;-69
2022/09/19 05:01:08;;;;;;;2.30;1.87;;;5.70;99.90;;;;;;5040143;23;20887;-68
2022/09/19 05:03:14;;;;;;;4.73;2.40;;;5.60;99.90;;;;;;5067544;23;20623;-69
2022/09/19 05:05:17;;;;;;;2.37;2.00;;;5.50;99.90;;;;;;5067319;23;20404;-68
2022/09/19 05:07:19;;;;;;;3.27;2.17;;;5.50;99.90;;;;;;5067547;23;20480;-69
2022/09/19 05:09:22;;;;;;;3.57;2.30;;;5.40;99.90;;;;;;5067479;23;20480;-69
2022/09/19 05:11:22;;;;;;;6.77;2.47;;;5.40;99.90;;;;;;5066377;23;20402;-69
2022/09/19 05:13:24;;;;;;;5.83;3.00;;;5.40;99.90;;;;;;5066293;23;20426;-69
2022/09/19 05:15:25;;;;;;;3.83;2.60;;;5.40;99.90;;;;;;5066190;23;20212;-69
2022/09/19 05:17:25;;;;;;;3.13;2.57;;;5.40;99.90;;;;;;5066119;23;20761;-69
2022/09/19 05:19:26;;;;;;;6.23;3.17;;;5.50;99.90;;;;;;5066299;23;20217;-69
2022/09/19 05:21:27;;;;;;;4.40;2.47;;;5.50;99.90;;;;;;5065262;23;20182;-69
2022/09/19 05:23:29;;;;;;;7.63;2.87;;;5.60;99.90;;;;;;5066098;23;20386;-69
2022/09/19 05:25:34;;;;;;;4.20;1.93;;;5.70;99.90;;;;;;5066155;23;20257;-69
2022/09/19 05:27:36;;;;;;;2.30;2.10;;;5.70;99.90;;;;;;5066194;23;20386;-68
2022/09/19 05:29:39;;;;;;;6.17;2.40;;;5.70;99.90;;;;;;5066231;23;20390;-68
2022/09/19 05:31:41;;;;;;;4.33;2.40;;;5.70;99.90;;;;;;5039703;23;20838;-69
2022/09/19 05:33:41;;;;;;;4.93;2.20;;;5.70;99.90;;;;;;5065475;23;20437;-69
2022/09/19 05:35:42;;;;;;;3.47;2.70;;;5.80;99.90;;;;;;5066186;23;20517;-69
2022/09/19 05:37:45;;;;;;;4.20;2.90;;;5.90;99.90;;;;;;5066175;23;20158;-70
2022/09/19 05:39:45;;;;;;;7.83;2.53;;;5.90;99.90;;;;;;5066043;23;20386;-69
2022/09/19 05:41:46;;;;;;;4.20;2.60;;;6.00;99.90;;;;;;5065358;23;20417;-68
2022/09/19 05:43:46;;;;;;;3.90;2.07;;;6.00;99.90;;;;;;5065872;23;20166;-69
2022/09/19 05:45:48;;;;;;;8.50;2.80;;;6.10;99.90;;;;;;5039999;23;20229;-69
2022/09/19 05:47:49;;;;;;;4.13;2.57;;;6.00;99.90;;;;;;5065849;23;20162;-69
2022/09/19 05:49:49;;;;;;;2.20;1.60;;;6.10;99.90;;;;;;5065662;23;20429;-69
2022/09/19 05:51:55;;;;;;;4.00;2.67;;;6.20;99.90;;;;;;5064964;23;20522;-69
2022/09/19 05:53:56;;;;;;;9.73;2.87;;;6.30;99.90;;;;;;5039845;23;20179;-69
2022/09/19 05:55:56;;;;;;;6.33;2.20;;;6.30;99.90;;;;;;5065672;23;20446;-69
2022/09/19 05:57:58;;;;;;;4.13;2.27;;;6.40;99.90;;;;;;5065963;23;20465;-69
2022/09/19 05:59:58;;;;;;;3.50;2.10;;;6.40;99.90;;;;;;5039732;23;20167;-69
2022/09/19 06:02:01;;;;;;;3.93;1.70;;;6.40;99.90;;;;;;5065107;23;20825;-69
2022/09/19 06:04:02;;;;;;;3.83;2.00;;;6.40;99.90;;;;;;5065783;23;20261;-68
2022/09/19 06:06:11;;;;;;;3.03;2.00;;;6.40;99.90;;;;;;5065455;23;20390;-69
2022/09/19 06:08:12;;;;;;;5.57;2.03;;;6.40;99.90;;;;;;5065779;23;20378;-68
2022/09/19 06:10:13;;;;;;;6.87;2.37;;;6.40;99.90;;;;;;5065130;23;20398;-69
2022/09/19 06:12:13;;;;;;;5.87;1.93;;;6.60;99.90;;;;;;5065688;23;20418;-69
2022/09/19 06:14:14;;;;;;;3.50;2.20;;;6.60;99.90;;;;;;5065660;23;20162;-69
2022/09/19 06:16:15;;;;;;;5.63;2.30;;;6.40;99.90;;;;;;5065536;23;20165;-69
2022/09/19 06:18:16;;;;;;;6.03;2.30;;;6.40;99.90;;;;;;5065771;23;20165;-68
2022/09/19 06:20:16;;;;;;;4.73;2.40;;;6.50;99.90;;;;;;5015350;23;20781;-69
2022/09/19 06:22:17;;;;;;;4.73;2.20;;;6.60;99.90;;;;;;5065740;23;20185;-67
2022/09/19 06:24:17;;;;;;;2.30;1.80;;;6.70;99.90;;;;;;5065707;23;20172;-69
2022/09/19 06:26:18;;;;;;;4.03;1.73;;;6.90;99.90;;;;;;5065478;23;20154;-68
2022/09/19 06:28:19;;;;;;;4.03;1.57;;;7.00;99.90;;;;;;5065667;23;20159;-69
2022/09/19 06:30:19;;;;;;;4.00;1.60;;;7.10;99.90;;;;;;5065000;23;20517;-69
2022/09/19 06:32:20;;;;;;;3.50;2.10;;;7.10;99.90;;;;;;5065427;23;20182;-69
2022/09/19 06:34:21;;;;;;;2.50;1.60;;;7.00;99.90;;;;;;5065583;23;20181;-68
2022/09/19 06:36:22;;;;;;;4.17;1.80;;;7.20;99.90;;;;;;5065738;23;20189;-66
2022/09/19 06:38:22;;;;;;;3.07;1.50;;;7.10;99.90;;;;;;5065630;23;20386;-68
2022/09/19 06:40:23;;;;;;;7.33;1.80;;;7.10;99.90;;;;;;5038678;23;20167;-69
2022/09/19 06:42:23;;;;;;;5.50;1.83;;;7.00;99.90;;;;;;5065394;23;20158;-69
2022/09/19 06:44:25;;;;;;;4.77;1.90;;;6.90;99.90;;;;;;5065585;23;20169;-68
2022/09/19 06:46:25;;;;;;;6.60;1.83;;;6.80;99.90;;;;;;5065708;23;20666;-68
2022/09/19 06:48:26;;;;;;;5.23;1.40;;;6.70;99.90;;;;;;5065286;23;20473;-68
2022/09/19 06:50:27;;;;;;;2.87;1.97;;;6.60;99.90;;;;;;5064822;23;20162;-67
2022/09/19 06:52:28;;;;;;;5.40;1.97;;;6.60;99.90;;;;;;5065485;23;20214;-68
2022/09/19 06:54:29;;;;;;;5.97;2.00;;;6.70;99.90;;;;;;5065333;23;20768;-69
2022/09/19 06:56:29;;;;;;;3.50;2.10;;;6.70;99.90;;;;;;5065452;23;20258;-68
2022/09/19 06:58:30;;;;;;;4.40;2.13;;;6.80;99.90;;;;;;5065457;23;20185;-68
2022/09/19 07:00:35;;;;;;;3.73;1.73;;;6.80;99.90;;;;;;5064841;23;20556;-69
2022/09/19 07:02:36;;;;;;;8.70;2.30;;;6.70;99.90;;;;;;5065514;23;20170;-68
2022/09/19 07:04:37;;;;;;;7.83;3.20;;;6.80;99.90;;;;;;5065582;23;20394;-69
2022/09/19 07:06:37;;;;;;;3.53;1.90;;;7.00;99.90;;;;;;5065714;23;20246;-68
2022/09/19 07:08:38;;;;;;;4.93;2.93;;;7.00;99.90;;;;;;5065722;23;20201;-68
2022/09/19 07:10:38;;;;;;;8.10;2.23;;;7.20;99.90;;;;;;5064799;23;20174;-69
2022/09/19 07:12:39;;;;;;;8.97;3.43;;;7.30;99.90;;;;;;5065551;23;20269;-68
2022/09/19 07:14:41;;;;;;;4.53;2.13;;;7.40;99.90;;;;;;5065549;23;20163;-68
2022/09/19 07:16:41;;;;;;;11.70;1.80;;;7.40;99.90;;;;;;5066302;23;20510;-68
2022/09/19 07:18:42;;;;;;;7.10;2.70;;;7.40;99.90;;;;;;5067439;23;20403;-68
2022/09/19 07:20:42;;;;;;;4.73;1.77;;;7.20;99.90;;;;;;5066588;23;20182;-67
2022/09/19 07:22:43;;;;;;;4.13;2.30;;;7.10;99.90;;;;;;5067439;23;20162;-71
2022/09/19 07:24:44;;;;;;;5.70;3.27;;;7.00;99.90;;;;;;5067220;23;20564;-68
2022/09/19 07:26:44;;;;;;;7.10;2.50;;;7.10;99.90;;;;;;5067306;23;20177;-68
2022/09/19 07:28:45;;;;;;;3.23;1.30;;;7.30;99.90;;;;;;5067438;23;20631;-68
2022/09/19 07:30:46;;;;;;;9.03;1.57;;;7.50;99.90;;;;;;5066634;23;20241;-68
2022/09/19 07:32:47;;;;;;;3.03;1.37;;;7.60;99.90;;;;;;5066947;23;20723;-68
2022/09/19 07:34:48;;;;;;;6.60;1.73;;;7.70;99.90;;;;;;5067402;23;20381;-67
2022/09/19 07:36:48;;;;;;;7.17;1.43;;;7.70;99.90;;;;;;5067090;23;20163;-67
2022/09/19 07:38:49;;;;;;;3.33;1.70;;;7.70;99.90;;;;;;5067223;23;20191;-68
2022/09/19 07:40:50;;;;;;;18.23;3.40;;;7.70;99.90;;;;;;5066233;23;20527;-67
2022/09/19 07:42:51;;;;;;;11.37;2.27;;;7.70;99.90;;;;;;5067088;23;20534;-68
2022/09/19 07:44:51;;;;;;;4.50;1.30;;;7.90;99.90;;;;;;5067130;23;20449;-67
2022/09/19 07:49:25;;;;;;;9.17;2.03;;;8.40;99.90;;;;;;5034062;23;20203;-67
2022/09/19 07:51:30;;;;;;;5.33;1.53;;;8.30;99.90;;;;;;5066401;23;20182;-67
2022/09/19 07:53:30;;;;;;;7.80;1.67;;;8.20;99.90;;;;;;5067139;23;20268;-68
2022/09/19 07:55:31;;;;;;;4.53;1.50;;;8.00;99.90;;;;;;5066899;23;20178;-67
2022/09/19 07:57:32;;;;;;;3.33;1.10;;;7.60;99.90;;;;;;5040990;23;20159;-67
2022/09/19 07:59:33;;;;;;;10.13;1.60;;;7.40;99.90;;;;;;5066672;23;20219;-67
2022/09/19 08:01:34;;;;;;;4.03;1.57;;;7.60;99.90;;;;;;5066010;23;20175;-68
2022/09/19 08:03:34;;;;;;;4.60;1.50;;;7.80;99.90;;;;;;5067028;23;20163;-68
2022/09/19 08:05:39;;;;;;;5.33;1.53;;;8.10;99.90;;;;;;5066672;23;20391;-67
2022/09/19 08:07:39;;;;;;;9.07;1.67;;;8.30;99.90;;;;;;5066732;23;20243;-68
2022/09/19 08:09:40;;;;;;;4.97;1.20;;;8.40;99.90;;;;;;5066854;23;20657;-68
2022/09/19 08:11:40;;;;;;;9.10;1.80;;;8.50;99.90;;;;;;5065827;23;20317;-67
2022/09/19 08:13:42;;;;;;;5.07;1.40;;;8.50;99.90;;;;;;5066903;23;20190;-67
2022/09/19 08:15:44;;;;;;;5.97;1.43;;;8.50;99.90;;;;;;5066675;23;20168;-67
2022/09/19 08:17:59;;;;;;;6.10;1.27;;;8.70;99.90;;;;;;5066761;23;20159;-68
2022/09/19 08:20:00;;;;;;;4.37;1.83;;;8.80;99.90;;;;;;5066753;23;20168;-68
2022/09/19 08:22:01;;;;;;;7.37;1.33;;;8.90;99.90;;;;;;5066042;23;20686;-67
2022/09/19 08:24:01;;;;;;;3.63;1.77;;;9.00;99.90;;;;;;5066983;23;20547;-67
2022/09/19 08:26:04;;;;;;;3.43;1.17;;;9.00;98.00;;;;;;5066811;23;20233;-68
2022/09/19 08:28:05;;;;;;;4.93;1.20;;;8.90;98.50;;;;;;5066483;23;20166;-67
2022/09/19 08:30:06;;;;;;;5.13;1.20;;;8.90;99.10;;;;;;5067017;23;20170;-67
2022/09/19 08:32:07;;;;;;;3.57;1.20;;;9.10;98.00;;;;;;5065837;23;20643;-67
2022/09/19 08:34:09;;;;;;;3.33;1.10;;;9.10;98.40;;;;;;5066578;23;20178;-68
2022/09/19 08:36:10;;;;;;;4.23;1.10;;;9.40;98.10;;;;;;5066516;23;20170;-68
2022/09/19 08:38:13;;;;;;;5.90;1.50;;;9.60;95.20;;;;;;5066537;23;20162;-68
2022/09/19 08:40:31;;;;;;;3.10;1.10;;;9.50;94.40;;;;;;5065676;23;20171;-68
2022/09/19 08:42:42;;;;;;;5.43;1.47;;;9.60;95.30;;;;;;5066450;23;20158;-68
2022/09/19 08:44:53;;;;;;;6.93;1.37;;;9.90;94.10;;;;;;5066387;23;20233;-68
2022/09/19 08:47:02;;;;;;;2.77;1.00;;;9.90;92.80;;;;;;5066386;23;20151;-67
2022/09/19 08:49:29;;;;;;;3.00;1.10;;;10.30;91.90;;;;;;5066626;23;20210;-68
2022/09/19 08:51:59;;;;;;;5.80;1.10;;;10.60;86.40;;;;;;5066055;23;20261;-67
2022/09/19 08:54:32;;;;;;;6.97;0.90;;;10.70;82.40;;;;;;5066374;23;20257;-67
2022/09/19 08:56:36;;;;;;;4.20;1.17;;;10.90;84.80;;;;;;5040777;23;20164;-68
2022/09/19 08:58:44;;;;;;;4.17;1.17;;;11.50;83.70;;;;;;5066498;23;20569;-68
2022/09/19 09:00:46;;;;;;;2.93;1.00;;;11.90;82.50;;;;;;5065709;23;20178;-68
2022/09/19 09:02:58;;;;;;;2.60;0.90;;;12.30;76.10;;;;;;5040494;23;20175;-69
2022/09/19 09:04:59;;;;;;;3.37;1.10;;;12.20;78.20;;;;;;5066395;23;20206;-67
2022/09/19 09:07:42;;;;;;;2.27;0.87;;;12.20;79.00;;;;;;5066490;23;20571;-69
2022/09/19 09:10:07;;;;;;;6.70;1.53;;;12.30;80.50;;;;;;5024795;23;20644;-67
2022/09/19 09:12:19;;;;;;;5.17;1.10;;;12.30;75.00;;;;;;5065875;23;20193;-69
2022/09/19 09:15:02;;;;;;;6.10;1.40;;;12.30;77.80;;;;;;5066309;23;20197;-69
2022/09/19 09:17:14;;;;;;;5.87;1.03;;;12.30;80.50;;;;;;5021657;23;20170;-70
2022/09/19 09:19:48;;;;;;;4.83;1.00;;;12.30;73.40;;;;;;5066370;23;20602;-69
2022/09/19 09:22:24;;;;;;;5.57;1.20;;;12.20;72.60;;;;;;5065495;23;20643;-70
2022/09/19 09:24:39;;;;;;;5.13;1.40;;;12.50;73.00;;;;;;5066361;23;20153;-69
2022/09/19 09:26:43;;;;;;;4.00;0.93;;;12.50;74.90;;;;;;5040480;23;20165;-69
2022/09/19 09:28:54;;;;;;;7.70;1.00;;;12.90;69.70;;;;;;5066534;23;20508;-70
2022/09/19 09:31:17;;;;;;;5.60;1.20;;;12.90;70.60;;;;;;5065607;23;20185;-69
2022/09/19 09:33:21;;;;;;;6.43;1.70;;;12.30;76.20;;;;;;5066112;23;20575;-70
2022/09/19 09:35:29;;;;;;;3.63;1.07;;;12.10;73.10;;;;;;5066286;23;20185;-72
2022/09/19 09:37:44;;;;;;;5.80;1.43;;;12.50;74.00;;;;;;5066316;23;20490;-69
2022/09/19 09:39:59;;;;;;;3.63;1.40;;;13.50;69.40;;;;;;5040023;23;20164;-69
2022/09/19 09:42:04;;;;;;;3.03;1.10;;;13.40;64.00;;;;;;5065329;23;20175;-70
2022/09/19 09:44:13;;;;;;;7.03;1.70;;;13.60;64.50;;;;;;5066429;23;20168;-70
2022/09/19 09:46:22;;;;;;;4.33;1.10;;;13.80;64.50;;;;;;5066233;23;20166;-70
2022/09/19 09:48:33;;;;;;;7.20;1.17;;;13.70;67.40;;;;;;5040284;23;20173;-69
2022/09/19 09:50:49;;;;;;;2.53;0.90;;;14.10;66.60;;;;;;5065468;23;20245;-68
2022/09/19 09:53:17;;;;;;;1.50;0.83;;;14.00;64.60;;;;;;5065963;23;20216;-68
2022/09/19 09:58:13;;;;;;;2.80;1.10;;;14.40;65.00;;;;;;5065954;23;20158;-69
2022/09/19 10:05:07;;;;;;;2.50;0.90;;;13.40;65.90;;;;;;5065995;23;20157;-69
2022/09/19 10:07:26;;;;;;;4.20;1.13;;;13.50;68.90;;;;;;5066035;23;20198;-69
2022/09/19 10:09:33;;;;;;;2.60;1.10;;;13.50;68.20;;;;;;5040118;23;20163;-69
2022/09/19 10:12:09;;;;;;;3.47;1.07;;;13.30;69.80;;;;;;5065191;23;20178;-68
2022/09/19 10:14:23;;;;;;;4.60;1.30;;;13.70;64.30;;;;;;5020989;23;20957;-68
2022/09/19 10:16:24;;;;;;;3.03;0.90;;;13.70;65.60;;;;;;5040332;23;20250;-68
2022/09/19 10:18:30;;;;;;;2.53;0.83;;;14.00;61.30;;;;;;5040078;23;20171;-68
2022/09/19 10:20:49;;;;;;;4.07;0.97;;;13.50;65.60;;;;;;5039427;23;20162;-69
2022/09/19 10:22:49;;;;;;;4.83;1.00;;;13.60;64.30;;;;;;5065975;23;20200;-68
2022/09/19 10:24:59;;;;;;;5.00;1.00;;;13.70;63.30;;;;;;5065819;23;20158;-68
2022/09/19 10:27:00;;;;;;;3.37;1.00;;;13.70;68.50;;;;;;5065802;23;20615;-67
2022/09/19 10:29:02;;;;;;;2.43;0.80;;;14.10;62.20;;;;;;5040126;23;20173;-68
2022/09/19 10:31:04;;;;;;;2.53;1.00;;;14.50;57.80;;;;;;5064970;23;20185;-68
2022/09/19 10:33:38;;;;;;;3.90;0.90;;;14.40;59.70;;;;;;5065254;23;20197;-69
2022/09/19 10:35:41;;;;;;;2.87;1.23;;;14.60;58.30;;;;;;5066033;23;20139;-69
2022/09/19 10:37:43;;;;;;;3.03;0.90;;;15.30;55.60;;;;;;5040408;23;20195;-69
2022/09/19 10:39:46;;;;;;;3.20;1.10;;;15.20;53.10;;;;;;5040462;23;20633;-69
2022/09/19 10:41:47;;;;;;;1.00;0.70;;;14.50;55.60;;;;;;5065476;23;20233;-69
2022/09/19 10:43:54;;;;;;;3.47;0.90;;;14.10;59.90;;;;;;5066269;23;20313;-69
2022/09/19 10:45:54;;;;;;;3.93;1.00;;;13.90;61.20;;;;;;5065584;23;20166;-69
2022/09/19 10:48:01;;;;;;;3.57;0.70;;;14.00;60.40;;;;;;5065963;23;20299;-69
2022/09/19 10:50:02;;;;;;;2.77;1.17;;;14.10;59.60;;;;;;5039921;23;20274;-69
2022/09/19 10:52:04;;;;;;;1.30;0.80;;;13.90;60.20;;;;;;5065840;23;20686;-69
2022/09/19 10:54:11;;;;;;;1.23;0.80;;;13.60;61.90;;;;;;5067304;23;20182;-69
2022/09/19 10:56:29;;;;;;;3.53;0.80;;;13.40;62.60;;;;;;5067525;23;20150;-69
2022/09/19 10:58:37;;;;;;;1.40;0.80;;;13.20;62.20;;;;;;5068267;23;20154;-69
2022/09/19 11:01:01;;;;;;;2.17;0.73;;;13.30;65.40;;;;;;5017573;23;20162;-69
2022/09/19 11:03:23;;;;;;;1.33;0.70;;;13.30;63.80;;;;;;5067389;23;20155;-69
2022/09/19 11:05:28;;;;;;;1.77;0.70;;;13.80;64.10;;;;;;5041652;23;20242;-69
2022/09/19 11:07:49;;;;;;;2.90;0.97;;;14.50;58.20;;;;;;5067365;23;20536;-69
2022/09/19 11:09:53;;;;;;;0.97;0.80;;;16.60;55.60;;;;;;5041639;23;20151;-69
2022/09/19 11:12:10;;;;;;;2.20;1.10;;;17.00;51.20;;;;;;5066624;23;20313;-69
2022/09/19 11:14:19;;;;;;;1.03;0.80;;;17.10;49.90;;;;;;5041366;23;20666;-69
2022/09/19 11:16:37;;;;;;;1.93;0.70;;;17.20;48.70;;;;;;5041644;23;20163;-69